dotfiles

Dotfiles from my $HOME.
git clone git://git@git.eugene-andrienko.com:/home/git/CO2Meter_docs.git
Log | Files | Refs | Submodules

DateCommit messageAuthorFiles+-
2018-08-31 22:17Add initial mutt configurationh0rr0rrdrag0n8+413-0
2018-08-30 20:45Switch to Gentooh0rr0rrdrag0n16+64-789
2018-08-29 19:17Updated presentation template.h0rr0rrdrag0n1+35-3
2018-07-31 23:16.h0rr0rrdrag0n5+27-6
2018-07-29 11:28Fix i3 settings for FreeBSD realityh0rr0rrdrag0n2+11-20
2018-07-28 18:27Fix colors to conform with white background for vim, i3wm and urxvth0rr0rrdrag0n3+29-28
2018-07-28 17:02Switch to FreeBSDh0rr0rrdrag0n11+15-61
2018-06-05 19:47Use patience algorithm for git diffh0rr0rrdrag0n1+1-1
2018-05-24 21:45Use vim-better-whitespace plugin instead of listchars setting.h0rr0rrdrag0n1+13-5
2018-05-18 23:08Add cmus configh0rr0rrdrag0n1+185-0
2018-05-18 23:07Simplified deployment scripts.h0rr0rrdrag0n10+42-82
2018-04-29 19:58Fix colors for git diffh0rr0rrdrag0n1+3-3
2018-04-29 19:56Remove unneeded plugins, add proper indentation for curly braces.h0rr0rrdrag0n1+3-25
2018-04-29 11:43Use red console text for commands, when logged under the root.h0rr0rrdrag0n2+4-0
2018-04-24 20:27Add hr utilityh0rr0rrdrag0n4+6-0
2018-04-24 20:18Add alias for git diff --cachedh0rr0rrdrag0n1+1-0
2018-04-24 20:16Renamed .user_config to .userconfigh0rr0rrdrag0n5+5-3
2018-04-23 20:14Fix git branch color. Remove dublicate mistypes section from aliases.h0rr0rrdrag0n2+4-6
2018-04-22 21:08Some changes on vimrc, added gitgutter pluginh0rr0rrdrag0n1+11-9
2018-04-22 17:16Use Emacs starter kith0rr0rrdrag0n46+6-19060
2018-04-22 16:06Fix git prompth0rr0rrdrag0n1+3-2
2018-04-22 11:12Create nice prompth0rr0rrdrag0n3+62-26
2018-04-22 00:25Add duckduckgo console searcher as ddgh0rr0rrdrag0n5+14-0
2018-04-20 20:31Fix docklc to print only name of the last container.h0rr0rrdrag0n1+1-1
2018-04-20 20:23Add special file for user-related bash config lines.h0rr0rrdrag0n3+7-3
2018-04-19 23:00Add useful aliases.h0rr0rrdrag0n2+34-9
2018-04-15 20:55Use git pull --rebase instead of git pull by default.h0rr0rrdrag0n1+1-1
2018-04-06 19:43Fix colors for terminal with white backgroundh0rr0rrdrag0n1+2-2
2018-04-06 19:42Commented Python settings for Vimh0rr0rrdrag0n1+26-26
2018-04-06 19:42Enlarged LaTeX report templateh0rr0rrdrag0n1+9-1
2018-04-06 19:42Add Emacs config for Ch0rr0rrdrag0n43+19006-28
2018-04-06 19:40Fix path for Javah0rr0rrdrag0n1+1-1
2018-04-06 19:40Change mplayer options to show more infoh0rr0rrdrag0n1+1-1
2017-05-08 22:01Use white color scheme for vimh0rr0rrdrag0n1+2-3
2017-04-21 21:11Add time to console prompth0rr0rrdrag0n1+1-0
2017-04-21 21:08Enabled white color theme for console and for tmux.h0rr0rrdrag0n2+19-14
2017-02-26 21:29Add gitld aliash0rr0rrdrag0n1+1-0
2017-02-22 19:56Adjust tmux colors contrast. Remove tmux initialization from bash profile.h0rr0rrdrag0n2+8-11
2016-12-13 15:23New tmux windows created with the same directory as in currenth0rr0rrdrag0n1+6-0
2016-11-30 21:28Fix encoding of presentation template.h0rr0rrdrag0n1+1-1
2016-10-07 18:00Add plugin with vim-airline-themesh0rr0rrdrag0n1+1-0
2016-09-11 11:17Merge branch 'master' of bitbucket.org:h0rr0rr_drag0n/dotfilesh0rr0rrdrag0n0+0-0
2016-09-11 11:14Add useful scripting code for using gith0rr0rrdrag0n3+12-4
2016-04-10 19:11Merge branch 'master' of gitlab.com:eugeneandrienko/dotfilesh0rr0rrdrag0n1+0-1
2016-04-10 18:55Removed logging from emacs org-modeh0rr0rrdrag0n1+6-6
2016-04-10 14:29Add emacs Org-mode configh0rr0rrdrag0n3+82-0
2015-11-02 09:30Add git submodule calls to deploy script.h0rr0rrdrag0n1+3-1
2015-10-21 12:30Change color definitionsh0rr0rrdrag0n1+18-0
2015-10-08 12:51Remove tabbar, change green color.h0rr0rrdrag0n1+2-2
2015-10-08 12:51Remove unneeded programs from listh0rr0rrdrag0n1+3-6
2015-10-01 09:28Add configuration files for i3wm and urxvth0rr0rrdrag0n5+352-0
2015-08-29 10:35Add setting for English interface.h0rr0rrdrag0n1+1-0
2015-08-21 13:26Add IPYTHONDIR environment variable.h0rr0rrdrag0n1+3-0
2015-08-21 12:02Add alises for Pythonh0rr0rrdrag0n1+6-0
2015-08-21 12:02Configure ipython.h0rr0rrdrag0n1+5-5
2015-08-21 11:40Add ipython config.h0rr0rrdrag0n5+523-0
2015-08-17 14:45Change gitl alias - now it showing tags.h0rr0rrdrag0n1+1-1
2015-08-17 11:36Add aliases for apt.h0rr0rrdrag0n1+4-0
2015-08-10 17:45gitl shows commit history in reverse order.h0rr0rrdrag0n1+1-1
2015-08-10 14:24Moved binaries source catalogs to bin catalog.h0rr0rrdrag0n7+18-12
2015-08-10 14:17Add progress binary, which shows progress for coreutils like cp and mv.h0rr0rrdrag0n6+28-1
2015-08-10 14:02Add subrepo with utility progress - coreutils progress viewerh0rr0rrdrag0n2+4-0
2015-08-09 20:20Start tmux on the shell start.h0rr0rrdrag0n1+4-0
2015-08-09 20:16Show current path in terminal titleh0rr0rrdrag0n1+5-0
2015-08-09 20:10Remove vimdiff difftool and pager settings. Add CRLF2LF converter and space checking settings.h0rr0rrdrag0n1+4-5
2015-08-09 12:40In aliases and tmux now using shell as login shell.h0rr0rrdrag0n2+2-2
2015-08-07 11:13Move .bashrc to .bash_profile. Remove complete from requirements.h0rr0rrdrag0n4+37-37
2015-08-07 10:52Merge branch 'master' of github.com:h0rr0rrdrag0n/dotfilesh0rr0rrdrag0n0+0-0
2015-08-07 10:46Enchance git configuration.h0rr0rrdrag0n2+16-7
2015-08-07 10:46Add bash-completionh0rr0rrdrag0n1+1-0
2015-08-07 10:31Add color setting to git configh0rr0rrdrag0n1+2-0
2015-08-07 10:29Add git aliasesh0rr0rrdrag0n1+13-0
2015-08-07 10:21Show return code only if it is not equal with zero.h0rr0rrdrag0n1+3-3
2015-08-07 10:13Prints git branch on the bash prompt.h0rr0rrdrag0n1+11-3
2015-08-07 10:01Enchanced aliases, functions, readline config and other bash stuff.h0rr0rrdrag0n5+71-2
2015-08-06 21:12Create undo and swap directories for vim.h0rr0rrdrag0n1+4-4
2015-08-06 21:09Move environment variables and prompt settings to the separate files.h0rr0rrdrag0n4+60-58
2015-08-06 21:00Rewrite README.h0rr0rrdrag0n1+8-68
2015-08-06 20:55Wrote python deploy script.h0rr0rrdrag0n2+60-4
2015-08-06 18:03Add special settings for scanner from master branch.h0rr0rrdrag0n1+6-0
2015-08-06 15:51Add list of REAL requirements.h0rr0rrdrag0n1+7-0
2015-08-06 15:50Remove aliases, unneeded in modern Linux distro.h0rr0rrdrag0n1+0-10
2015-08-06 15:46Remove scripts.h0rr0rrdrag0n2+0-81
2015-08-06 15:40Perform python3 check and call python deploy script after that.h0rr0rrdrag0n1+9-25
2015-08-06 15:11Add skeleton of the Python deploy script.h0rr0rrdrag0n1+23-0
2015-08-06 14:58Separate dotfile in different catalogs.h0rr0rrdrag0n46+1246-1302
2015-02-19 23:04Switched to python from python3h0rr0rrdrag0n1+1-1
2015-02-19 23:03Added defaut cmdh0rr0rrdrag0n1+1-0
2015-02-19 23:03removed pagerh0rr0rrdrag0n1+0-1
2015-02-19 14:15Switched to Linux Mint - removed unneeded config filesh0rr0rrdrag0n9+0-1691
2015-02-18 14:20Merge branch 'master' of github.com:h0rr0rrdrag0n/dotfilesh0rr0rrdrag0n1+1-1
2015-02-17 09:33Merge branch 'master' of github.com:h0rr0rrdrag0n/dotfilesh0rr0rrdrag0n9+65-385
2015-02-17 09:32Added xosd to readmeh0rr0rrdrag0n1+1-0
2015-01-12 08:53Removed default.command from task configh0rr0rrdrag0n1+0-2
2015-01-09 05:32Changed wallpaperh0rr0rrdrag0n1+1-1
2015-01-03 11:18Added workaround, which helps updated task to work with TaskWarrior serverh0rr0rrdrag0n1+1-0
2015-01-01 00:12Rewrite README file. Remove apvlv config'h0rr0rrdrag0n2+32-31
2014-12-31 23:52Added config for TaskWarrior clienth0rr0rrdrag0n1+51-0
2014-12-25 15:29Made MPlayer window floatingh0rr0rrdrag0n1+2-0
2014-12-19 16:15Switched vim to python2h0rr0rrdrag0n1+1-1
2014-12-17 23:47Added vim netrwhist file to gitignoreh0rr0rrdrag0n1+1-0
2014-12-17 23:46Added virtualenv plugin to vimrch0rr0rrdrag0n1+1-0
2014-12-10 09:59Added vimpager configh0rr0rrdrag0n1+4-0
2014-12-03 12:12Now PDF files showed continiouslyh0rr0rrdrag0n1+1-1
2014-12-01 17:09Now chrome apps opened in floating windowsh0rr0rrdrag0n1+2-0
2014-11-24 00:06Added apvlv configh0rr0rrdrag0n1+3-0
2014-11-22 21:25Added wget alias for I2Ph0rr0rrdrag0n1+1-0
2014-11-22 20:18Added some moc files to ignore listh0rr0rrdrag0n1+2-0
2014-11-22 20:17Change commands color from green to cyanh0rr0rrdrag0n1+1-1
2014-11-22 14:32Added MOC configh0rr0rrdrag0n3+713-0
2014-11-22 13:56Configured mcabber...h0rr0rrdrag0n3+24-25
2014-11-19 17:45Switched to i3lock-wrapper from i3lockh0rr0rrdrag0n1+1-1
2014-11-19 17:40Switched from less pager to vimpager.h0rr0rrdrag0n1+1-1
2014-11-16 22:23Added old-new df alias, added new mount_cyr alias for my cyrillic flash drives.'h0rr0rrdrag0n1+3-1
2014-11-06 18:37Add some changes into the colorscheme...h0rr0rrdrag0n1+8-8
2014-11-06 18:24Dmenu item, which disables the touchpad, are working nowh0rr0rrdrag0n1+1-1
2014-11-05 08:22Made "VK Share" Chromium window floatingh0rr0rrdrag0n1+2-0
2014-11-05 00:56Little fixes for rtorrenth0rr0rrdrag0n2+5-7
2014-11-04 03:08Fixed some colors for urxvt and dmenu. Both are gray now, not black or cyan.h0rr0rrdrag0n2+4-3
2014-11-04 02:59Little color fixes for i3wm and i3statush0rr0rrdrag0n2+20-3
2014-11-04 02:21Now I can open URLs from urxvt, again. And cursor, set by xsetroot, doesn't dissapear.h0rr0rrdrag0n2+6-5
2014-11-03 02:53Moved X global settings again to xinitrc. Now, mouse cursor, language settings for X and etc works properly after i3 starth0rr0rrdrag0n2+6-6
2014-11-03 02:39Rewrite goodmenu script -- now enable/disable touchpad menu items should working.h0rr0rrdrag0n1+21-6
2014-10-30 08:04Added some cmdline arguments for xcompmgrh0rr0rrdrag0n1+1-1
2014-10-29 15:04Fix WM_CLASS for Chromiumh0rr0rrdrag0n1+1-1
2014-10-29 14:28Added automatic numlock enable on X server startup Customized bash prompt - now it is more colorful and show command exit codeh0rr0rrdrag0n2+21-10
2014-10-29 12:25For enable/disable touchpad I use synclient, not xinput. Added xcompmgr to i3 autostart. Adjusted font size for vim and i3wm. Added info about xcompmgr to README.h0rr0rrdrag0n4+7-5
2014-10-29 11:35.profile file now sourced from bashrc. Added xsetroot command to i3wm config file. Now cursor sets to usual arrow shape when i3wm starts. Added LC_MESSAGES=C - do not want to touch system-wide settings for console fonts. Added special setting to xinitrc file, which should enable special notebook-specific video configuration - Nvidia card like 3D accelerator and less powerful Intel card like dummy videocard, which simply show videodata on the screen.h0rr0rrdrag0n5+8-5
2014-10-26 20:11Focus follows mouseh0rr0rrdrag0n1+1-1
2014-10-26 20:04Rewrite README.md. Now it is up-to-dateh0rr0rrdrag0n1+6-8
2014-10-26 18:36Added vimdiff support to git diff command. You should use git d unstead of git diff to use vimdiff. Added extra X server settings (via specail X programs) to i3 autorun. Fixed LESS env. variable. Now git diff workscorrectly. Added CtrlP and CtrlP-Fuzzy extension. Now Vim could perform fuzzy search in files, buffers and source code Xdefaults file mustn't execute automatically by X server - in this case I've got broken user theme in the Unityh0rr0rrdrag0n6+102-93
2014-10-25 18:53Oops. Forgotten files, related to previous commith0rr0rrdrag0n6+66-68
2014-10-25 18:50So, I switched to Ubuntu (only in it distro all my HW work properly) - I edited aliases and bashrc.Switched from freetalk to mcabber.Added custom i3status config.Rewrite goodmenu.sh Rewrite deploy.sh script - switched to /bin/bash again. And remove freetalk dir from mkdir lines. Added some useful settings to i3 config - working with scrathcpad, i3status settings, applications for autostart and etc...h0rr0rrdrag0n2+582-0
2014-10-24 18:08Cosmetic changes in urxvt color theme. Enabled vi mode for bash. Added support of i3lock screen locker in i3 - now we have a special key for to block screen. Added colors definitions for ls - now it is not so ugly in urxvt. Make font in gvim smaller.h0rr0rrdrag0n7+12-14
2014-10-24 10:55Fxied mistype in mkdir command. Added gitignore file to list of ignored filesh0rr0rrdrag0n1+5-5
2014-10-23 22:01Added *BSD style bash-completion invoke lineh0rr0rrdrag0n1+2-1
2014-10-23 21:41Added config for freetalk Jabber clienth0rr0rrdrag0n3+20-0
2014-10-23 18:53Now I can exit from i3 without i3-navbarh0rr0rrdrag0n1+1-1
2014-10-23 09:30Switched to i3wm and added default i3wm configh0rr0rrdrag0n2+154-0
2014-10-23 09:18Removed Qtile configs - there are a big problems with Qtile 0.8.0 in FreeBSD - some dependencies built without necessary optionsh0rr0rrdrag0n3+0-118
2014-10-21 21:45Fixed path to screen - it differs in Linux and FreeBSDh0rr0rrdrag0n1+1-1
2014-10-21 21:26Switched from Linux to FreeBSD and rewrote config files properlyh0rr0rrdrag0n11+112-113
2014-10-20 06:03Swiched from Win to Alt key and from xterm to urxvt in qtile configh0rr0rrdrag0n1+2-2
2014-10-19 21:52Changed default font for Linux Gvimh0rr0rrdrag0n2+3-1
2014-10-19 21:47Now deploy script creates .vim/swapfiles and ,vim/undodir directories - without these catalogs Vim produce error message on starth0rr0rrdrag0n1+2-0
2014-10-19 21:44Changed vim settings for new Vundleh0rr0rrdrag0n2+18-16
2014-10-19 20:38Added Qtile configsh0rr0rrdrag0n2+2-0
2014-10-19 20:34Fixed another error in deploy script - now it is check file/dir presence in HOME and do not create extra symlinks inside directories in the repositoryh0rr0rrdrag0n4+123-2
2014-10-19 20:13Fixed default behaviour of git pushh0rr0rrdrag0n1+2-0
2014-10-19 20:09Fixed error in deploy script - now links show to dotfile_repo/filename, not to ~/filename itself.h0rr0rrdrag0n1+1-1
2014-10-16 19:52Rewrite deploy.sh script. Now it becomes smaller, it tested and it works!h0rr0rrdrag0n2+35-32
2014-10-13 21:55Removed ugly ";" symbols from the list items.h0rr0rrdrag0n1+41-41
2014-10-13 21:52Clean the mess in the repository.h0rr0rrdrag0n2008+1223-624233
2014-10-09 21:28Merge branch 'linux'h0rr0rrdrag0n8+15-11
2012-09-07 20:48Added branch-deploy scripth0rr0rrdrag0n1+12-0
2012-09-07 20:21Removed fluxbox configsh0rr0rrdrag0n11+0-470
2012-09-07 15:38Added final noteh0rr0rrdrag0n1+4-0
2012-09-07 13:04Modified .bashrc for systems without pgreph0rr0rrdrag0n1+1-1
2012-09-07 12:27Oops, forgotten rc-cedeth0rr0rrdrag0n1+1-1
2012-09-07 12:26Oops, forgotten .emacsh0rr0rrdrag0n1+11-11
2012-09-07 12:22Added CEDET files to Emacs dir treeh0rr0rrdrag0n878+267614-0
2012-08-02 20:38Now ECB and Emacs 24 are working togetherh0rr0rrdrag0n447+8247-38903
2012-07-22 11:22Removed X autostartingh0rr0rrdrag0n1+2-2
2012-07-22 11:19Changed fonts and colors for xmonad and xmobarh0rr0rrdrag0n2+2-2
2012-07-22 11:19Added new items to my goodmenuh0rr0rrdrag0n1+32-1
2012-06-17 13:13Some settings for Java and ANT.h0rr0rrdrag0n1+9-2
2012-06-17 13:12Switched to xmonadh0rr0rrdrag0n5+9-6
2012-06-17 13:12Now I can use use right and left second display, not only righth0rr0rrdrag0n1+8-2
2012-06-17 13:11Some fixes after update to Emacs 24.1.1. Now I using system-wide CEDET and AUCTEX.h0rr0rrdrag0n841+10-249299
2012-06-17 13:01Added android-mode and JDE for android developmenth0rr0rrdrag0n149+54404-0
2012-06-02 07:40Added new amazing tricks in bash, urxvt!h0rr0rrdrag0n6+5-2
2012-05-31 20:57Now we use 2 spaces in tab in C and now Slime is properly works for clojureh0rr0rrdrag0n142+11833-85569
2012-04-29 14:51After installin CodeSourcery G++h0rr0rrdrag0n1+7-0
2012-04-07 06:57Update gitignoreh0rr0rrdrag0n5+20-1
2012-04-07 06:54Added env vars for Javah0rr0rrdrag0n1+3-1
2012-04-07 06:54Updates in latex templatesh0rr0rrdrag0n1+41-9
2012-04-07 06:53Added gnuplot mode to emacsh0rr0rrdrag0n3+2600-0
2012-04-07 06:52Updated Trolltech configh0rr0rrdrag0n1+23-0
2012-04-07 06:51changed panel sizeh0rr0rrdrag0n1+3-1
2012-04-07 06:50Added Gimp itemh0rr0rrdrag0n1+2-1
2012-04-07 06:50Added new initialization of bash_completion for Arch linuxh0rr0rrdrag0n1+3-1
2012-03-07 19:39Added templates for latexh0rr0rrdrag0n1+116-0
2012-03-05 03:52Now files automaticly refreshed in buffersh0rr0rrdrag0n1+2-0
2012-02-26 18:11changed wallpaper to PCB rendered imageh0rr0rrdrag0n2+2-2
2012-02-07 20:00Activated WindMove lib in emacs configh0rr0rrdrag0n1+8-0
2012-02-03 13:50Moved C-mode setting to rc-c-mode.elh0rr0rrdrag0n3+59-55
2012-02-02 10:02Removed dropbox and halevt startup codeh0rr0rrdrag0n1+5-5
2012-02-02 08:58Now emacs do not using emacs w3m and using droid font as it described in arch linuxh0rr0rrdrag0n2+3-3
2012-02-02 08:53Now I using fluxbox with feh-installed wallpaperh0rr0rrdrag0n2+4-4
2012-02-02 08:50now mplayer using alsah0rr0rrdrag0n1+1-1
2012-02-02 08:49Switched to green black theme with droid fonth0rr0rrdrag0n3+42-38
2012-02-02 05:34mc setting moved to .configh0rr0rrdrag0n2+182-0
2012-01-30 08:15Removed vnc settingh0rr0rrdrag0n3+1-21
2012-01-30 07:53Added vnc configsh0rr0rrdrag0n3+20-0
2012-01-25 07:21Changed indentation style for switch operator in ch0rr0rrdrag0n1+44-1
2012-01-19 13:08lein executable updatedh0rr0rrdrag0n1+26-13
2012-01-19 13:07Use inferior lisp unstead of slimeh0rr0rrdrag0n1+1-1
2012-01-19 13:06Added Assault Cube to xinitrch0rr0rrdrag0n1+1-0
2012-01-19 13:06Disabled edit serverh0rr0rrdrag0n1+1-1
2012-01-19 13:05Added highlighting for keywords FIXME:|TODO: in commentsh0rr0rrdrag0n1+8-0
2012-01-05 05:26Added some slime filesh0rr0rrdrag0n6+575-0
2012-01-01 16:11Added doxygen config sectionh0rr0rrdrag0n2+28-21
2011-12-16 07:26Added new display mode for monitors in Birzhevayah0rr0rrdrag0n1+6-0
2011-12-15 20:14Fixed colors in ECB non-main windowsh0rr0rrdrag0n1+4-0
2011-12-15 20:13Fixed auto-complete working with flyspellh0rr0rrdrag0n1+2-0
2011-12-15 15:35Enabled Emacs keybindings for all GTK appsh0rr0rrdrag0n1+1-0
2011-12-13 18:14Installed spell checking for emacsh0rr0rrdrag0n2+11-1
2011-12-13 18:14Added halevt config and installed bash-completionh0rr0rrdrag0n3+16-2
2011-12-13 18:02Addde d3ftp aliash0rr0rrdrag0n1+1-0
2011-12-10 11:35Switched to Zenburn for GTK2 appsh0rr0rrdrag0n2+268-0
2011-12-10 10:44changed background, layouts and window behaviour for awesomeh0rr0rrdrag0n3+28-21
2011-12-10 10:34Wrote script for switching between different monitor configurationsh0rr0rrdrag0n1+38-0
2011-12-09 21:01Switched to zenburn color themeh0rr0rrdrag0n3+41-39
2011-12-09 21:01Switched to awesomeh0rr0rrdrag0n42+676-2
2011-12-09 15:32Recolored xmonad and xmobar to black and green hax0r colorh0rr0rrdrag0n2+12-11
2011-12-08 20:20Switched to xmonadh0rr0rrdrag0n2+7-1
2011-12-08 19:35Added initial xmobar and xmonad filesh0rr0rrdrag0n2+321-0
2011-12-02 11:32Added ~/.bin/ to PATHh0rr0rrdrag0n1+1-0
2011-12-01 16:21Added completion history fileh0rr0rrdrag0n1+1-0
2011-12-01 16:20Added color-column and line numbersh0rr0rrdrag0n1+4-0
2011-12-01 16:18Added alias for CSh0rr0rrdrag0n1+1-0
2011-11-28 07:52Now using text-mode for unknown and text filesh0rr0rrdrag0n1+5-0
2011-11-27 10:41Added auto-complete for C filesh0rr0rrdrag0n40+9953-0
2011-11-26 11:09Disabled semantic stickyfunc mode and header line tooh0rr0rrdrag0n1+1-0
2011-11-26 11:09Enabled fill-column-indicator only for C filesh0rr0rrdrag0n2+2-1
2011-11-26 10:49Added linum-mode=1 for C filesh0rr0rrdrag0n1+3-0
2011-11-26 10:36Added ecb-output-version to emacsh0rr0rrdrag0n1+1-0
2011-11-24 15:41Changed gitignore for better privacyh0rr0rrdrag0n1+1-0
2011-11-24 15:41Enabled jabber in emacsh0rr0rrdrag0n3+18-6
2011-11-23 19:31Switched layout for ECBh0rr0rrdrag0n1+1-1
2011-11-23 09:57Configured ECBh0rr0rrdrag0n2+10-0
2011-11-23 09:18Installed ECB on Emacsh0rr0rrdrag0n408+114582-0
2011-11-23 07:48Installed CEDET on Emacsh0rr0rrdrag0n838+249304-0
2011-11-23 07:46Removed unneded mimeinfo cacheh0rr0rrdrag0n1+0-14
2011-11-23 07:45Changed backgroundh0rr0rrdrag0n2+2-2
2011-11-23 07:44Added .local/share to gitignoreh0rr0rrdrag0n1+2-0
2011-11-20 13:16Removed gtkfilechooser.ini from repoh0rr0rrdrag0n1+0-12
2011-11-20 13:15Changed IP address for d3ssh functionh0rr0rrdrag0n1+1-1
2011-11-16 20:03Added path to sam-ba binaryh0rr0rrdrag0n1+1-0
2011-11-16 19:55Added minicom config fileh0rr0rrdrag0n1+3-0
2011-11-16 18:40Changed path to gnuarm toolchain - installed new fresh gnuarm.h0rr0rrdrag0n1+1-1
2011-11-16 13:46Added path to arm-elf-gcch0rr0rrdrag0n1+1-0
2011-11-16 13:45Modified .gitignore to ignore gtkfilechooser fileh0rr0rrdrag0n2+3-3
2011-11-15 11:06Added static IP addres to d3ssh aliash0rr0rrdrag0n1+2-1
2011-11-15 06:12Added d3ssh alias for my first serverh0rr0rrdrag0n3+7-2
2011-11-13 16:58Added skype entry to fluxbox menuh0rr0rrdrag0n1+2-1
2011-11-13 06:22Added alias for wicdh0rr0rrdrag0n1+1-0
2011-11-11 20:05Fix2: now dropbox script really undep from curr cons sessionh0rr0rrdrag0n1+3-2
2011-11-10 16:53Added script name to messages from Dropbox scripth0rr0rrdrag0n1+3-3
2011-11-10 14:31Fixed dropbox script - now it is not depend from current console sessionh0rr0rrdrag0n1+17-0
2011-11-10 13:01Added script for starting dropbox automaticlyh0rr0rrdrag0n2+4-2
2011-11-09 20:00Added deploy scripth0rr0rrdrag0n1+34-0
2011-11-08 11:00Added .local/share/icons to gitignoreh0rr0rrdrag0n1+1-0
2011-10-28 14:21Initialh0rr0rrdrag0n726+278071-0
2011-10-28 13:56first commith0rr0rrdrag0n1+0-0